createdAt,value
2023-02-11T00:01:22.511Z,94513.63
2023-02-11T00:02:54.329Z,94516.38
2023-02-11T00:04:26.179Z,94511.69
2023-02-11T00:05:59.087Z,94508.47
2023-02-11T00:07:31.208Z,94511.09
2023-02-11T00:09:03.133Z,94517.56
2023-02-11T00:10:35.631Z,94505.78
2023-02-11T00:12:07.529Z,94516.69
2023-02-11T00:13:39.472Z,94516.84
2023-02-11T00:15:11.099Z,94515.63
2023-02-11T00:16:42.913Z,94514.97
2023-02-11T00:18:15.159Z,94511.72
2023-02-11T00:19:49.783Z,94516.16
2023-02-11T00:21:22.289Z,94498.91
2023-02-11T00:22:54.485Z,94510.09
2023-02-11T00:24:26.427Z,94501.38
2023-02-11T00:25:58.246Z,94500.56
2023-02-11T00:27:29.806Z,94505.28
2023-02-11T00:29:01.639Z,94507.72
2023-02-11T00:30:33.404Z,94507.31
2023-02-11T00:32:05.479Z,94503.88
2023-02-11T00:33:37.126Z,94516.84
2023-02-11T00:35:08.770Z,94504.50
2023-02-11T00:36:40.343Z,94504.34
2023-02-11T00:38:11.948Z,94503.34
2023-02-11T00:39:43.480Z,94508.59
2023-02-11T00:41:15.219Z,94505.34
2023-02-11T00:42:46.719Z,94499.44
2023-02-11T00:44:18.581Z,94501.25
2023-02-11T00:45:50.523Z,94499.25
2023-02-11T00:47:22.227Z,94500.44
2023-02-11T00:48:57.766Z,94495.16
2023-02-11T00:50:29.841Z,94496.00
2023-02-11T00:52:01.487Z,94501.25
2023-02-11T00:53:33.099Z,94498.00
2023-02-11T00:55:04.787Z,94499.63
2023-02-11T00:56:36.388Z,94501.69
2023-02-11T00:58:07.928Z,94504.78
2023-02-11T00:59:39.539Z,94500.97
2023-02-11T01:01:12.748Z,94501.41
2023-02-11T01:02:44.370Z,94499.56
2023-02-11T01:04:15.899Z,94496.56
2023-02-11T01:05:47.591Z,94498.22
2023-02-11T01:07:19.371Z,94492.13
2023-02-11T01:08:50.983Z,94487.88
2023-02-11T01:10:22.645Z,94500.22
2023-02-11T01:11:54.400Z,94481.16
2023-02-11T01:13:26.015Z,94483.97
2023-02-11T01:14:57.720Z,94478.69
2023-02-11T01:16:29.330Z,94487.59
2023-02-11T01:18:00.924Z,94485.97
2023-02-11T01:19:32.701Z,94483.56
2023-02-11T01:21:04.374Z,94492.03
2023-02-11T01:22:39.597Z,94489.81
2023-02-11T01:24:11.188Z,94480.28
2023-02-11T01:25:42.736Z,94490.81
2023-02-11T01:27:14.312Z,94478.84
2023-02-11T01:28:45.937Z,94481.66
2023-02-11T01:30:17.610Z,94471.13
2023-02-11T01:31:49.348Z,94468.84
2023-02-11T01:33:21.075Z,94472.94
2023-02-11T01:34:52.656Z,94470.94
2023-02-11T01:36:24.291Z,94468.31
2023-02-11T01:37:55.937Z,94465.69
2023-02-11T01:39:27.536Z,94459.59
2023-02-11T01:41:00.559Z,94465.69
2023-02-11T01:42:32.792Z,94468.94
2023-02-11T01:44:42.542Z,94467.31
2023-02-11T01:46:28.968Z,94464.22
2023-02-11T01:48:02.598Z,94461.34
2023-02-11T01:49:36.516Z,94456.66
2023-02-11T01:51:14.853Z,94464.72
2023-02-11T01:52:48.115Z,94456.19
2023-02-11T01:54:39.422Z,94458.22
2023-02-11T01:56:29.587Z,94463.84
2023-02-11T01:58:01.958Z,94457.31
2023-02-11T01:59:34.922Z,94464.56
2023-02-11T02:01:06.536Z,94458.88
2023-02-11T02:02:43.383Z,94458.44
2023-02-11T02:04:15.441Z,94459.44
2023-02-11T02:05:50.695Z,94454.34
2023-02-11T02:07:29.234Z,94458.91
2023-02-11T02:09:02.356Z,94455.66
2023-02-11T02:10:34.227Z,94459.28
2023-02-11T02:12:05.832Z,94455.84
2023-02-11T02:13:37.372Z,94455.00
2023-02-11T02:15:19.292Z,94456.00
2023-02-11T02:16:50.898Z,94458.22
2023-02-11T02:18:22.574Z,94459.38
2023-02-11T02:20:07.079Z,94454.50
2023-02-11T02:21:41.297Z,94451.69
2023-02-11T02:23:25.725Z,94451.31
2023-02-11T02:25:20.962Z,94457.03
2023-02-11T02:27:02.211Z,94455.00
2023-02-11T02:28:48.819Z,94457.66
2023-02-11T02:30:20.557Z,94459.66
2023-02-11T02:31:59.896Z,94459.03
2023-02-11T02:33:37.944Z,94457.94
2023-02-11T02:35:09.893Z,94455.25
2023-02-11T02:36:43.178Z,94454.31
2023-02-11T02:38:26.426Z,94457.88
2023-02-11T02:39:58.770Z,94462.88
2023-02-11T02:41:31.270Z,94460.44
2023-02-11T02:43:03.335Z,94467.84
2023-02-11T02:44:34.987Z,94464.13
2023-02-11T02:46:12.225Z,94458.78
2023-02-11T02:47:44.022Z,94455.09
2023-02-11T02:49:15.777Z,94463.69
2023-02-11T02:50:47.728Z,94455.91
2023-02-11T02:52:19.209Z,94457.34
2023-02-11T02:53:50.906Z,94456.25
2023-02-11T02:55:25.104Z,94452.97
2023-02-11T02:56:58.470Z,94465.13
2023-02-11T02:58:33.891Z,94468.75
2023-02-11T03:00:05.598Z,94468.75
2023-02-11T03:01:37.672Z,94463.88
2023-02-11T03:03:28.115Z,94466.19
2023-02-11T03:04:59.624Z,94460.31
2023-02-11T03:06:49.257Z,94456.22
2023-02-11T03:08:24.374Z,94463.66
2023-02-11T03:10:00.001Z,94458.75
2023-02-11T03:11:32.104Z,94464.09
2023-02-11T03:13:03.670Z,94463.63
2023-02-11T03:14:35.452Z,94473.66
2023-02-11T03:16:11.648Z,94467.25
2023-02-11T03:17:44.153Z,94466.09
2023-02-11T03:19:18.388Z,94465.25
2023-02-11T03:20:50.910Z,94461.31
2023-02-11T03:22:23.198Z,94469.63
2023-02-11T03:23:56.588Z,94459.94
2023-02-11T03:25:32.469Z,94461.56
2023-02-11T03:27:07.634Z,94458.13
2023-02-11T03:28:41.349Z,94461.38
2023-02-11T03:30:22.093Z,94461.56
2023-02-11T03:31:56.907Z,94464.53
2023-02-11T03:33:34.388Z,94460.09
2023-02-11T03:35:06.084Z,94466.81
2023-02-11T03:36:46.045Z,94458.03
2023-02-11T03:38:19.577Z,94465.22
2023-02-11T03:39:52.506Z,94465.84
2023-02-11T03:41:24.335Z,94458.63
2023-02-11T03:42:59.843Z,94463.88
2023-02-11T03:44:33.243Z,94471.75
2023-02-11T03:46:04.910Z,94458.63
2023-02-11T03:47:37.145Z,94466.13
2023-02-11T03:49:12.681Z,94453.81
2023-02-11T03:50:44.299Z,94457.41
2023-02-11T03:52:15.860Z,94451.00
2023-02-11T03:53:47.426Z,94450.00
2023-02-11T03:55:20.144Z,94448.03
2023-02-11T03:56:52.720Z,94448.28
2023-02-11T03:58:24.185Z,94450.28
2023-02-11T03:59:56.679Z,94458.16
2023-02-11T04:01:28.437Z,94456.38
2023-02-11T04:03:00.409Z,94456.53
2023-02-11T04:04:32.235Z,94457.53
2023-02-11T04:06:03.899Z,94453.75
2023-02-11T04:07:35.473Z,94449.28
2023-02-11T04:09:07.045Z,94436.53
2023-02-11T04:10:38.818Z,94440.97
2023-02-11T04:12:10.781Z,94444.13
2023-02-11T04:13:42.204Z,94442.47
2023-02-11T04:15:13.674Z,94437.22
2023-02-11T04:16:45.238Z,94443.28
2023-02-11T04:18:16.818Z,94441.66
2023-02-11T04:19:48.477Z,94435.59
2023-02-11T04:21:20.320Z,94439.22
2023-02-11T04:22:51.959Z,94436.50
2023-02-11T04:24:23.749Z,94442.84
2023-02-11T04:25:55.351Z,94434.50
2023-02-11T04:27:27.018Z,94439.91
2023-02-11T04:28:58.594Z,94435.06
2023-02-11T04:30:30.399Z,94438.50
2023-02-11T04:32:02.336Z,94435.22
2023-02-11T04:33:34.232Z,94434.75
2023-02-11T04:35:06.137Z,94433.31
2023-02-11T04:36:37.775Z,94436.91
2023-02-11T04:38:09.341Z,94441.34
2023-02-11T04:39:41.212Z,94434.47
2023-02-11T04:41:12.949Z,94430.03
2023-02-11T04:42:45.040Z,94437.56
2023-02-11T04:44:16.644Z,94431.50
2023-02-11T04:45:48.809Z,94430.50
2023-02-11T04:47:21.186Z,94429.50
2023-02-11T04:48:53.300Z,94430.31
2023-02-11T04:50:24.813Z,94434.13
2023-02-11T04:51:56.403Z,94437.38
2023-02-11T04:53:28.060Z,94437.09
2023-02-11T04:54:59.610Z,94439.31
2023-02-11T04:56:31.137Z,94431.72
2023-02-11T04:58:02.873Z,94434.88
2023-02-11T04:59:34.399Z,94433.59
2023-02-11T05:01:09.601Z,94431.69
2023-02-11T05:02:41.287Z,94430.88
2023-02-11T05:04:12.878Z,94424.16
2023-02-11T05:05:44.571Z,94428.66
2023-02-11T05:07:16.194Z,94429.69
2023-02-11T05:08:47.765Z,94444.84
2023-02-11T05:10:19.381Z,94432.09
2023-02-11T05:11:51.106Z,94434.56
2023-02-11T05:13:22.814Z,94431.28
2023-02-11T05:14:54.342Z,94426.84
2023-02-11T05:16:26.104Z,94425.22
2023-02-11T05:17:58.077Z,94429.66
2023-02-11T05:19:29.726Z,94435.06
2023-02-11T05:21:05.445Z,94426.84
2023-02-11T05:22:37.033Z,94429.81
2023-02-11T05:24:08.594Z,94430.34
2023-02-11T05:25:40.242Z,94430.88
2023-02-11T05:27:11.838Z,94432.03
2023-02-11T05:28:43.619Z,94428.75
2023-02-11T05:30:15.212Z,94434.34
2023-02-11T05:31:46.788Z,94426.31
2023-02-11T05:33:18.413Z,94421.88
2023-02-11T05:34:50.002Z,94431.38
2023-02-11T05:36:21.772Z,94433.00
2023-02-11T05:37:53.462Z,94431.38
2023-02-11T05:39:25.008Z,94436.34
2023-02-11T05:40:56.637Z,94436.03
2023-02-11T05:42:28.321Z,94440.78
2023-02-11T05:43:59.820Z,94435.53
2023-02-11T05:45:31.354Z,94431.66
2023-02-11T05:47:02.963Z,94436.06
2023-02-11T05:48:34.611Z,94435.59
2023-02-11T05:50:06.430Z,94444.78
2023-02-11T05:51:55.358Z,94439.09
2023-02-11T05:57:42.471Z,94446.72
2023-02-11T05:58:29.105Z,94441.34
2023-02-11T05:59:14.407Z,94441.09
2023-02-11T06:00:46.039Z,94450.84
2023-02-11T06:02:17.736Z,94451.88
2023-02-11T06:03:50.388Z,94452.31
2023-02-11T06:05:21.972Z,94449.09
2023-02-11T06:06:53.515Z,94448.03
2023-02-11T06:08:25.221Z,94449.81
2023-02-11T06:09:56.917Z,94446.75
2023-02-11T06:11:28.727Z,94443.16
2023-02-11T06:13:01.387Z,94444.81
2023-02-11T06:14:34.403Z,94438.59
2023-02-11T06:16:06.313Z,94443.13
2023-02-11T06:17:38.169Z,94441.41
2023-02-11T06:19:09.905Z,94439.06
2023-02-11T06:20:41.754Z,94446.00
2023-02-11T06:22:13.706Z,94442.22
2023-02-11T06:23:48.134Z,94453.91
2023-02-11T06:25:20.323Z,94447.22
2023-02-11T06:26:52.143Z,94452.09
2023-02-11T06:28:23.755Z,94450.00
2023-02-11T06:29:55.593Z,94444.56
2023-02-11T06:31:27.475Z,94443.78
2023-02-11T06:32:59.167Z,94443.03
2023-02-11T06:34:30.742Z,94442.44
2023-02-11T06:36:02.441Z,94443.00
2023-02-11T06:37:34.883Z,94439.94
2023-02-11T06:39:06.542Z,94439.28
2023-02-11T06:40:38.683Z,94436.56
2023-02-11T06:42:10.407Z,94430.19
2023-02-11T06:43:42.180Z,94443.91
2023-02-11T06:45:13.956Z,94434.63
2023-02-11T06:46:45.887Z,94436.53
2023-02-11T06:48:18.045Z,94433.47
2023-02-11T06:49:49.699Z,94437.72
2023-02-11T06:51:21.238Z,94440.00
2023-02-11T06:52:53.199Z,94435.94
2023-02-11T06:54:24.785Z,94441.25
2023-02-11T06:55:56.347Z,94435.00
2023-02-11T06:57:31.801Z,94443.56
2023-02-11T06:59:03.726Z,94437.09
2023-02-11T07:00:35.485Z,94436.34
2023-02-11T07:02:09.024Z,94426.03
2023-02-11T07:03:41.265Z,94427.69
2023-02-11T07:05:12.985Z,94436.81
2023-02-11T07:06:44.545Z,94437.69
2023-02-11T07:08:16.808Z,94433.22
2023-02-11T07:09:48.511Z,94434.47
2023-02-11T07:11:21.350Z,94436.69
2023-02-11T07:12:54.004Z,94436.25
2023-02-11T07:14:26.218Z,94432.59
2023-02-11T07:15:57.773Z,94439.94
2023-02-11T07:17:29.380Z,94439.31
2023-02-11T07:19:00.976Z,94443.19
2023-02-11T07:20:32.509Z,94445.03
2023-02-11T07:22:04.522Z,94437.28
2023-02-11T07:23:36.654Z,94433.88
2023-02-11T07:25:08.196Z,94443.81
2023-02-11T07:26:39.814Z,94440.16
2023-02-11T07:28:11.359Z,94441.97
2023-02-11T07:29:42.908Z,94442.59
2023-02-11T07:31:16.299Z,94441.38
2023-02-11T07:32:48.260Z,94448.09
2023-02-11T07:34:20.256Z,94438.31
2023-02-11T07:35:52.241Z,94436.50
2023-02-11T07:37:24.337Z,94439.56
2023-02-11T07:38:56.124Z,94430.84
2023-02-11T07:40:28.006Z,94433.47
2023-02-11T07:42:00.247Z,94434.13
2023-02-11T07:43:32.059Z,94433.28
2023-02-11T07:45:03.612Z,94430.44
2023-02-11T07:46:35.983Z,94429.22
2023-02-11T07:48:07.676Z,94423.13
2023-02-11T07:49:39.246Z,94422.72
2023-02-11T07:51:12.072Z,94420.47
2023-02-11T07:52:43.602Z,94426.16
2023-02-11T07:54:15.184Z,94427.19
2023-02-11T07:55:46.903Z,94418.41
2023-02-11T07:57:18.450Z,94416.00
2023-02-11T07:58:50.154Z,94411.28
2023-02-11T08:00:21.896Z,94415.31
2023-02-11T08:01:53.507Z,94418.97
2023-02-11T08:03:25.202Z,94412.06
2023-02-11T08:04:56.900Z,94408.84
2023-02-11T08:06:29.453Z,94419.19
2023-02-11T08:08:01.088Z,94416.94
2023-02-11T08:09:34.654Z,94417.72
2023-02-11T08:11:09.636Z,94413.22
2023-02-11T08:12:41.281Z,94414.84
2023-02-11T08:14:13.464Z,94422.13
2023-02-11T08:15:45.059Z,94410.69
2023-02-11T08:17:17.300Z,94404.72
2023-02-11T08:18:49.230Z,94404.47
2023-02-11T08:20:21.063Z,94412.59
2023-02-11T08:21:54.888Z,94403.44
2023-02-11T08:23:26.381Z,94408.53
2023-02-11T08:24:58.695Z,94410.91
2023-02-11T08:26:31.811Z,94401.50
2023-02-11T08:28:03.442Z,94406.34
2023-02-11T08:29:35.491Z,94401.81
2023-02-11T08:31:08.332Z,94408.13
2023-02-11T08:32:40.028Z,94413.22
2023-02-11T08:34:11.972Z,94413.50
2023-02-11T08:35:43.566Z,94410.38
2023-02-11T08:37:15.072Z,94413.78
2023-02-11T08:38:46.876Z,94408.38
2023-02-11T08:40:18.567Z,94410.53
2023-02-11T08:41:51.016Z,94405.78
2023-02-11T08:43:23.741Z,94405.63
2023-02-11T08:44:55.539Z,94408.91
2023-02-11T08:46:27.243Z,94405.78
2023-02-11T08:47:58.868Z,94399.22
2023-02-11T08:49:31.734Z,94400.22
2023-02-11T08:51:10.134Z,94413.50
2023-02-11T08:52:42.076Z,94406.06
2023-02-11T08:54:13.749Z,94398.81
2023-02-11T08:55:54.893Z,94396.81
2023-02-11T08:57:27.172Z,94398.19
2023-02-11T08:58:58.842Z,94395.44
2023-02-11T09:00:30.698Z,94392.28
2023-02-11T09:02:02.553Z,94393.47
2023-02-11T09:03:34.307Z,94394.78
2023-02-11T09:05:05.975Z,94391.84
2023-02-11T09:06:37.577Z,94392.06
2023-02-11T09:08:09.155Z,94394.88
2023-02-11T09:09:40.857Z,94394.38
2023-02-11T09:11:12.504Z,94383.78
2023-02-11T09:12:44.207Z,94392.97
2023-02-11T09:14:19.550Z,94392.63
2023-02-11T09:15:51.281Z,94389.28
2023-02-11T09:17:22.867Z,94382.28
2023-02-11T09:18:54.858Z,94387.25
2023-02-11T09:20:27.400Z,94388.38
2023-02-11T09:22:00.005Z,94385.22
2023-02-11T09:23:34.533Z,94390.22
2023-02-11T09:25:06.660Z,94387.63
2023-02-11T09:26:38.395Z,94383.72
2023-02-11T09:28:10.066Z,94382.06
2023-02-11T09:29:41.638Z,94382.84
2023-02-11T09:31:14.449Z,94378.28
2023-02-11T09:32:46.648Z,94370.09
2023-02-11T09:34:18.307Z,94374.06
2023-02-11T09:35:50.137Z,94376.84
2023-02-11T09:37:21.730Z,94375.69
2023-02-11T09:38:53.520Z,94367.50
2023-02-11T09:40:25.175Z,94370.53
2023-02-11T09:42:02.812Z,94368.34
2023-02-11T09:43:39.482Z,94360.59
2023-02-11T09:45:13.538Z,94363.84
2023-02-11T09:46:53.194Z,94358.28
2023-02-11T09:48:24.804Z,94357.00
2023-02-11T09:49:59.242Z,94358.59
2023-02-11T09:51:36.343Z,94345.78
2023-02-11T09:53:13.939Z,94346.78
2023-02-11T09:55:01.260Z,94343.63
2023-02-11T09:56:32.873Z,94345.00
2023-02-11T09:58:05.286Z,94341.44
2023-02-11T09:59:37.344Z,94345.00
2023-02-11T10:01:08.994Z,94336.41
2023-02-11T10:02:45.172Z,94340.91
2023-02-11T10:04:20.627Z,94340.28
2023-02-11T10:05:55.110Z,94330.53
2023-02-11T10:07:36.419Z,94330.53
2023-02-11T10:09:11.928Z,94326.66
2023-02-11T10:10:53.240Z,94327.13
2023-02-11T10:12:28.331Z,94318.94
2023-02-11T10:14:12.666Z,94319.19
2023-02-11T10:15:56.369Z,94320.81
2023-02-11T10:17:32.746Z,94314.19
2023-02-11T10:19:16.177Z,94312.41
2023-02-11T10:21:00.437Z,94307.41
2023-02-11T10:22:36.729Z,94296.84
2023-02-11T10:24:10.723Z,94295.47
2023-02-11T10:25:49.465Z,94294.31
2023-02-11T10:27:21.900Z,94287.28
2023-02-11T10:28:53.828Z,94284.78
2023-02-11T10:30:30.114Z,94288.66
2023-02-11T10:32:02.318Z,94278.06
2023-02-11T10:33:34.338Z,94279.28
2023-02-11T10:35:11.101Z,94271.13
2023-02-11T10:36:43.836Z,94270.84
2023-02-11T10:38:15.566Z,94261.16
2023-02-11T10:39:47.219Z,94267.59
2023-02-11T10:41:23.027Z,94254.72
2023-02-11T10:42:59.744Z,94249.56
2023-02-11T10:44:32.770Z,94252.34
2023-02-11T10:46:05.070Z,94243.72
2023-02-11T10:47:37.844Z,94244.66
2023-02-11T10:49:09.509Z,94236.25
2023-02-11T10:50:41.081Z,94235.53
2023-02-11T10:52:18.411Z,94233.41
2023-02-11T10:53:51.332Z,94220.78
2023-02-11T10:55:24.623Z,94221.63
2023-02-11T10:56:59.416Z,94222.69
2023-02-11T10:58:32.153Z,94219.06
2023-02-11T11:00:08.874Z,94224.03
2023-02-11T11:01:41.303Z,94209.09
2023-02-11T11:03:17.482Z,94206.56
2023-02-11T11:04:49.175Z,94205.00
2023-02-11T11:06:31.112Z,94205.63
2023-02-11T11:08:05.342Z,94198.28
2023-02-11T11:09:48.509Z,94200.50
2023-02-11T11:11:23.724Z,94196.63
2023-02-11T11:12:55.407Z,94202.34
2023-02-11T11:14:29.125Z,94201.84
2023-02-11T11:16:07.070Z,94193.28
2023-02-11T11:17:38.820Z,94196.34
2023-02-11T11:19:10.737Z,94182.75
2023-02-11T11:20:44.859Z,94190.03
2023-02-11T11:22:21.414Z,94184.22
2023-02-11T11:23:56.768Z,94185.84
2023-02-11T11:25:29.449Z,94179.25
2023-02-11T11:27:02.000Z,94180.94
2023-02-11T11:28:38.871Z,94176.16
2023-02-11T11:30:15.407Z,94172.22
2023-02-11T11:31:47.337Z,94177.34
2023-02-11T11:33:23.254Z,94173.16
2023-02-11T11:34:58.254Z,94177.75
2023-02-11T11:36:34.261Z,94170.00
2023-02-11T11:38:06.255Z,94172.69
2023-02-11T11:39:38.845Z,94175.91
2023-02-11T11:41:17.593Z,94169.50
2023-02-11T11:43:02.319Z,94165.84
2023-02-11T11:44:35.197Z,94168.59
2023-02-11T11:46:07.874Z,94168.09
2023-02-11T11:47:57.711Z,94162.50
2023-02-11T11:49:29.965Z,94152.59
2023-02-11T11:55:53.108Z,94162.50
2023-02-11T12:05:34.820Z,94131.72
2023-02-11T12:05:52.908Z,94141.13
2023-02-11T12:07:10.000Z,94138.66
2023-02-11T12:08:45.030Z,94138.09
2023-02-11T12:27:51.565Z,94117.81
2023-02-11T12:31:55.603Z,94112.63
2023-02-11T12:33:59.346Z,94105.53
2023-02-11T12:35:55.949Z,94110.88
2023-02-11T12:37:49.984Z,94106.94
2023-02-11T12:39:56.460Z,94100.63
2023-02-11T12:43:54.693Z,94097.66
2023-02-11T12:45:55.892Z,94101.44
2023-02-11T12:47:43.517Z,94097.91
2023-02-11T12:49:48.604Z,94095.59
2023-02-11T12:53:30.275Z,94094.06
2023-02-11T12:55:11.037Z,94093.78
2023-02-11T12:57:05.401Z,94096.94
2023-02-11T12:58:45.450Z,94092.53
2023-02-11T13:00:19.499Z,94091.13
2023-02-11T13:02:32.515Z,94090.56
2023-02-11T13:15:43.176Z,94069.00
2023-02-11T13:21:13.422Z,94060.25
2023-02-11T13:22:09.322Z,94063.56
2023-02-11T13:24:57.987Z,94054.66
2023-02-11T13:26:49.294Z,94049.28
2023-02-11T13:30:28.581Z,94057.09
2023-02-11T13:32:15.033Z,94056.56
2023-02-11T13:36:19.843Z,94047.75
2023-02-11T13:37:51.928Z,94049.94
2023-02-11T13:39:23.915Z,94056.47
2023-02-11T13:41:14.361Z,94047.00
2023-02-11T13:42:58.732Z,94053.72
2023-02-11T13:44:30.436Z,94049.94
2023-02-11T13:46:03.085Z,94052.41
2023-02-11T13:47:35.150Z,94052.50
2023-02-11T13:49:15.968Z,94049.09
2023-02-11T13:50:48.892Z,94059.44
2023-02-11T13:52:29.191Z,94051.34
2023-02-11T13:54:00.882Z,94047.63
2023-02-11T13:55:35.788Z,94049.88
2023-02-11T13:57:16.346Z,94055.00
2023-02-11T13:59:01.505Z,94038.66
2023-02-11T14:00:33.998Z,94033.44
2023-02-11T14:02:28.604Z,94036.94
2023-02-11T14:04:46.390Z,94042.63
2023-02-11T14:06:39.191Z,94038.16
2023-02-11T14:08:29.632Z,94029.38
2023-02-11T14:10:01.387Z,94041.38
2023-02-11T14:11:32.896Z,94031.47
2023-02-11T14:13:16.930Z,94047.84
2023-02-11T14:15:02.868Z,94038.41
2023-02-11T14:16:38.343Z,94035.69
2023-02-11T14:18:29.291Z,94031.22
2023-02-11T14:20:01.442Z,94034.56
2023-02-11T14:21:37.159Z,94031.88
2023-02-11T14:23:17.558Z,94033.22
2023-02-11T14:24:51.393Z,94037.63
2023-02-11T14:26:26.198Z,94031.50
2023-02-11T14:28:01.316Z,94034.97
2023-02-11T14:29:51.626Z,94037.78
2023-02-11T14:31:43.611Z,94025.97
2023-02-11T14:33:35.008Z,94025.22
2023-02-11T14:35:10.459Z,94026.81
2023-02-11T14:36:47.128Z,94015.50
2023-02-11T14:38:35.823Z,94019.78
2023-02-11T14:40:16.945Z,94017.66
2023-02-11T14:42:03.623Z,94014.31
2023-02-11T14:43:36.447Z,94018.53
2023-02-11T14:45:09.219Z,94015.25
2023-02-11T14:46:44.168Z,94004.66
2023-02-11T14:48:17.005Z,94015.19
2023-02-11T14:49:48.798Z,94006.19
2023-02-11T14:51:23.736Z,94014.84
2023-02-11T14:52:55.527Z,94013.28
2023-02-11T14:56:48.533Z,94013.59
2023-02-11T14:58:20.263Z,94019.25
2023-02-11T14:59:55.160Z,94013.34
2023-02-11T15:01:32.743Z,94014.44
2023-02-11T15:03:04.527Z,94008.56
2023-02-11T15:04:37.030Z,94017.94
2023-02-11T15:06:15.115Z,94012.03
2023-02-11T15:07:47.657Z,94016.63
2023-02-11T15:09:20.341Z,94011.53
2023-02-11T15:10:52.562Z,94005.34
2023-02-11T15:13:05.604Z,94011.78
2023-02-11T15:14:57.376Z,94011.78
2023-02-11T15:16:31.306Z,94007.78
2023-02-11T15:18:04.431Z,94009.66
2023-02-11T15:19:36.825Z,94008.31
2023-02-11T15:21:08.504Z,94004.56
2023-02-11T15:22:40.256Z,94005.91
2023-02-11T15:24:27.544Z,94003.47
2023-02-11T15:26:44.568Z,94001.63
2023-02-11T15:28:39.363Z,93998.38
2023-02-11T15:34:26.380Z,93999.38
2023-02-11T15:36:01.112Z,94005.00
2023-02-11T15:37:33.126Z,94003.91
2023-02-11T15:39:37.212Z,94004.13
2023-02-11T15:41:09.308Z,93998.66
2023-02-11T15:42:52.506Z,93995.34
2023-02-11T15:44:29.111Z,94001.13
2023-02-11T15:46:01.929Z,93992.22
2023-02-11T15:47:34.548Z,93993.75
2023-02-11T15:49:09.088Z,93994.19
2023-02-11T15:55:50.462Z,93991.97
2023-02-11T16:29:36.897Z,93986.66
2023-02-11T16:31:09.968Z,93995.72
2023-02-11T16:32:41.810Z,93990.81
2023-02-11T16:34:14.840Z,93990.75
2023-02-11T16:35:47.860Z,93990.59
2023-02-11T16:37:19.599Z,93989.38
2023-02-11T16:38:51.254Z,93998.66
2023-02-11T16:40:25.680Z,93991.28
2023-02-11T16:41:57.453Z,93999.22
2023-02-11T16:43:29.238Z,93992.69
2023-02-11T16:45:01.351Z,94006.69
2023-02-11T16:46:33.268Z,94001.19
2023-02-11T16:48:08.642Z,94016.25
2023-02-11T16:49:41.806Z,94011.44
2023-02-11T16:51:14.103Z,94016.16
2023-02-11T16:52:47.548Z,94009.69
2023-02-11T16:54:19.788Z,94012.06
2023-02-11T16:55:52.223Z,94006.16
2023-02-11T16:57:24.519Z,94005.94
2023-02-11T16:58:56.418Z,94008.47
2023-02-11T17:00:28.529Z,94004.53
2023-02-11T17:02:00.311Z,94005.94
2023-02-11T17:03:36.335Z,94006.41
2023-02-11T17:05:08.740Z,94003.97
2023-02-11T17:06:40.548Z,94011.84
2023-02-11T17:08:12.395Z,94007.81
2023-02-11T17:09:44.085Z,94015.00
2023-02-11T17:11:17.636Z,94016.50
2023-02-11T17:12:49.534Z,94006.34
2023-02-11T17:14:21.274Z,94015.13
2023-02-11T17:15:53.433Z,94019.88
2023-02-11T17:17:25.650Z,94012.69
2023-02-11T17:18:57.392Z,94013.41
2023-02-11T17:20:29.357Z,94014.94
2023-02-11T17:22:01.112Z,94015.16
2023-02-11T17:23:32.854Z,94015.41
2023-02-11T17:25:04.554Z,94011.59
2023-02-11T17:26:37.093Z,94015.66
2023-02-11T17:28:09.003Z,94019.59
2023-02-11T17:29:40.662Z,94027.44
2023-02-11T17:31:12.391Z,94029.44
2023-02-11T17:32:44.029Z,94025.63
2023-02-11T17:34:17.039Z,94023.69
2023-02-11T17:35:50.401Z,94016.97
2023-02-11T17:37:22.653Z,94026.00
2023-02-11T17:38:54.949Z,94021.63
2023-02-11T17:40:26.788Z,94023.81
2023-02-11T17:41:58.375Z,94037.31
2023-02-11T17:43:30.136Z,94025.09
2023-02-11T17:45:01.771Z,94027.28
2023-02-11T17:46:34.206Z,94034.34
2023-02-11T17:48:06.028Z,94038.50
2023-02-11T17:49:37.744Z,94036.28
2023-02-11T17:51:28.057Z,94046.47
2023-02-11T17:52:59.607Z,94032.72
2023-02-11T17:54:31.358Z,94039.66
2023-02-11T17:56:06.788Z,94041.50
2023-02-11T17:57:38.554Z,94039.88
2023-02-11T17:59:10.697Z,94053.41
2023-02-11T18:00:43.594Z,94056.19
2023-02-11T18:02:15.948Z,94053.16
2023-02-11T18:03:49.122Z,94059.16
2023-02-11T18:05:38.191Z,94053.53
2023-02-11T18:07:10.405Z,94053.63
2023-02-11T18:09:06.610Z,94059.66
2023-02-11T18:11:12.552Z,94051.91
2023-02-11T18:12:47.593Z,94057.09
2023-02-11T18:22:59.507Z,94065.63
2023-02-11T18:34:33.078Z,94064.66
2023-02-11T18:36:25.846Z,94059.78
2023-02-11T18:38:00.864Z,94053.31
2023-02-11T18:39:38.228Z,94053.19
2023-02-11T18:41:17.686Z,94049.97
2023-02-11T18:42:59.295Z,94052.16
2023-02-11T18:44:39.263Z,94048.34
2023-02-11T18:46:17.071Z,94045.69
2023-02-11T18:47:48.777Z,94058.25
2023-02-11T18:49:23.576Z,94049.25
2023-02-11T18:52:41.038Z,94048.66
2023-02-11T18:57:43.948Z,94040.31
2023-02-11T19:01:03.432Z,94037.28
2023-02-11T19:02:38.211Z,94030.03
2023-02-11T19:04:12.693Z,94031.50
2023-02-11T19:05:51.638Z,94025.06
2023-02-11T19:07:25.184Z,94026.09
2023-02-11T19:09:08.720Z,94027.72
2023-02-11T19:10:43.424Z,94026.31
2023-02-11T19:12:22.751Z,94025.13
2023-02-11T19:13:54.343Z,94031.13
2023-02-11T19:15:26.592Z,94021.41
2023-02-11T19:17:01.681Z,94021.56
2023-02-11T19:18:53.629Z,94026.59
2023-02-11T19:20:33.993Z,94025.88
2023-02-11T19:22:10.803Z,94021.66
2023-02-11T19:23:42.842Z,94027.63
2023-02-11T19:25:14.777Z,94022.34
2023-02-11T19:26:50.486Z,94019.47
2023-02-11T19:28:23.445Z,94020.63
2023-02-11T19:29:56.354Z,94016.75
2023-02-11T19:31:29.509Z,94020.41
2023-02-11T19:33:02.889Z,94008.78
2023-02-11T19:34:41.438Z,94014.53
2023-02-11T19:36:16.856Z,94011.97
2023-02-11T19:37:48.764Z,94011.97
2023-02-11T19:39:20.681Z,94019.81
2023-02-11T19:40:55.738Z,94021.44
2023-02-11T19:42:29.662Z,94024.31
2023-02-11T19:44:01.608Z,94029.47
2023-02-11T19:45:40.793Z,94024.63
2023-02-11T19:47:14.228Z,94025.44
2023-02-11T19:48:46.181Z,94015.66
2023-02-11T19:50:21.074Z,94011.59
2023-02-11T19:51:53.675Z,94018.13
2023-02-11T19:53:31.976Z,94023.69
2023-02-11T19:55:03.697Z,94021.25
2023-02-11T19:56:45.059Z,94016.38
2023-02-11T19:58:18.566Z,94017.84
2023-02-11T19:59:50.208Z,94020.13
2023-02-11T20:01:34.295Z,94019.34
2023-02-11T20:03:06.328Z,94018.75
2023-02-11T20:04:41.241Z,94025.66
2023-02-11T20:06:14.430Z,94026.47
2023-02-11T20:07:46.162Z,94021.75
2023-02-11T20:09:17.794Z,94020.50
2023-02-11T20:10:49.440Z,94018.66
2023-02-11T20:12:23.860Z,94013.81
2023-02-11T20:13:56.036Z,94023.44
2023-02-11T20:15:27.951Z,94017.19
2023-02-11T20:17:06.317Z,94009.91
2023-02-11T20:18:38.790Z,94006.63
2023-02-11T20:20:10.696Z,94003.16
2023-02-11T20:21:43.910Z,94006.16
2023-02-11T20:23:17.486Z,94003.97
2023-02-11T20:24:49.403Z,93999.91
2023-02-11T20:26:22.677Z,93997.50
2023-02-11T20:27:55.146Z,93999.97
2023-02-11T20:29:27.677Z,94001.25
2023-02-11T20:30:59.593Z,94003.06
2023-02-11T20:32:37.921Z,93995.69
2023-02-11T20:34:10.121Z,94000.22
2023-02-11T20:35:41.900Z,94003.06
2023-02-11T20:37:15.793Z,93991.72
2023-02-11T20:41:06.424Z,93993.25
2023-02-11T20:44:24.024Z,93994.75
2023-02-11T20:45:55.651Z,93988.44